Time;durP1;ratioP1;P1;durP2;ratioP2;P2;SDS_P1;SDS_P2;PMS_P1;PMS_P2;Temp;Humidity;BMP_temperature;BMP_pressure;BME280_temperature;BME280_humidity;BME280_pressure;Samples;Min_cycle;Max_cycle;Signal;HPM_P1;HPM_P2
2022/08/27 00:01:51;;;;;;;10.93;8.90;;;;;;;24.01;62.36;99898.66;10433119;28;20053;-74
2022/08/27 00:06:53;;;;;;;10.80;8.15;;;;;;;23.97;61.18;99890.09;10431395;28;20041;-76
2022/08/27 00:11:56;;;;;;;11.52;9.10;;;;;;;23.93;61.72;99888.88;10430338;28;20633;-73
2022/08/27 00:16:58;;;;;;;10.30;8.57;;;;;;;23.87;61.37;99887.06;10429524;28;20033;-74
2022/08/27 00:21:59;;;;;;;9.88;8.32;;;;;;;23.78;61.44;99882.88;10420168;28;20050;-75
2022/08/27 00:27:01;;;;;;;9.00;8.13;;;;;;;23.70;61.87;99866.84;10422051;28;20049;-73
2022/08/27 00:32:03;;;;;;;8.50;7.60;;;;;;;23.72;61.35;99871.03;10423710;28;20053;-75
2022/08/27 00:37:05;;;;;;;9.65;7.53;;;;;;;23.59;61.42;99871.94;10419065;28;20051;-74
2022/08/27 00:42:07;;;;;;;9.90;7.63;;;;;;;23.48;62.20;99875.34;10413777;28;20076;-75
2022/08/27 00:47:16;;;;;;;9.38;7.03;;;;;;;23.48;63.03;99872.66;10380834;28;20045;-75
2022/08/27 00:52:32;;;;;;;10.40;7.22;;;;;;;23.49;62.82;99885.16;10378260;28;20136;-75
2022/08/27 00:57:37;;;;;;;11.88;7.30;;;;;;;23.39;62.65;99876.63;10383470;28;20132;-75
2022/08/27 01:02:39;;;;;;;12.40;7.35;;;;;;;23.38;63.30;99880.41;10380860;28;20059;-75
2022/08/27 01:07:44;;;;;;;8.50;7.53;;;;;;;23.36;63.99;99877.06;10384210;28;20064;-76
2022/08/27 01:12:46;;;;;;;10.75;7.70;;;;;;;23.29;64.95;99877.13;10379318;28;20041;-74
2022/08/27 01:17:55;;;;;;;9.75;7.05;;;;;;;23.41;64.21;99882.69;10380870;28;20642;-73
2022/08/27 01:23:15;;;;;;;;;;;;;;;23.52;63.80;99876.56;10377440;28;20053;-75
2022/08/27 01:28:17;;;;;;;10.82;7.35;;;;;;;23.53;63.81;99883.66;10374071;28;19924;-73
2022/08/27 01:33:22;;;;;;;10.85;7.68;;;;;;;23.51;63.55;99885.78;10373767;28;20057;-74
2022/08/27 01:38:23;;;;;;;10.30;7.75;;;;;;;23.50;63.70;99888.72;10374822;28;20710;-76
2022/08/27 01:43:31;;;;;;;11.43;6.40;;;;;;;23.45;62.99;99881.22;10376796;28;20053;-76
2022/08/27 01:48:33;;;;;;;8.52;6.90;;;;;;;23.39;63.51;99874.78;10382259;28;20818;-74
2022/08/27 01:53:35;;;;;;;8.90;6.80;;;;;;;23.30;64.20;99878.78;10378770;28;20053;-75
2022/08/27 01:58:37;;;;;;;9.00;6.40;;;;;;;23.33;63.49;99880.22;10382658;28;20290;-71
2022/08/27 02:03:39;;;;;;;8.63;6.53;;;;;;;23.39;65.70;99879.34;10380692;28;20053;-72
2022/08/27 02:08:41;;;;;;;8.23;6.43;;;;;;;23.40;63.74;99872.88;10380367;28;20068;-74
2022/08/27 02:13:42;;;;;;;8.32;7.10;;;;;;;23.34;63.41;99869.13;10376008;28;20059;-75
2022/08/27 02:18:44;;;;;;;9.35;6.43;;;;;;;23.30;64.08;99867.94;10373341;28;20049;-75
2022/08/27 02:23:45;;;;;;;7.72;6.93;;;;;;;23.37;64.25;99867.88;10376025;28;20132;-76
2022/08/27 02:28:46;;;;;;;9.18;6.63;;;;;;;23.28;64.37;99856.44;10377407;28;20549;-72
2022/08/27 02:33:48;;;;;;;9.15;6.28;;;;;;;23.29;64.66;99858.94;10372329;28;20049;-75
2022/08/27 02:38:50;;;;;;;8.57;6.53;;;;;;;23.28;64.33;99860.00;10372139;28;20058;-73
2022/08/27 02:43:51;;;;;;;7.40;6.60;;;;;;;23.26;64.16;99863.97;10375565;28;20051;-75
2022/08/27 02:48:53;;;;;;;8.10;6.67;;;;;;;23.25;64.77;99863.13;10380021;28;20128;-75
2022/08/27 02:53:55;;;;;;;9.63;6.72;;;;;;;23.19;64.17;99872.13;10380209;28;20817;-75
2022/08/27 02:58:58;;;;;;;8.43;6.68;;;;;;;23.10;64.07;99858.00;10396718;28;20141;-75
2022/08/27 03:03:59;;;;;;;8.90;7.13;;;;;;;22.91;64.83;99858.88;10377587;28;20045;-73
2022/08/27 03:09:01;;;;;;;12.50;7.10;;;;;;;22.86;65.09;99864.91;10375477;28;20042;-73
2022/08/27 03:14:02;;;;;;;9.40;6.97;;;;;;;22.87;64.83;99852.22;10377246;28;20079;-75
2022/08/27 03:19:06;;;;;;;8.15;6.75;;;;;;;22.89;65.46;99867.19;10377187;28;20045;-74
2022/08/27 03:24:08;;;;;;;9.40;6.95;;;;;;;22.76;64.94;99869.97;10378500;28;20056;-73
2022/08/27 03:29:15;;;;;;;8.75;7.22;;;;;;;22.85;65.47;99867.84;10374828;28;20723;-74
2022/08/27 03:34:17;;;;;;;9.63;6.97;;;;;;;22.95;65.07;99869.09;10379137;28;20062;-76
2022/08/27 03:39:20;;;;;;;8.95;7.15;;;;;;;22.97;65.40;99865.31;10379368;28;20136;-77
2022/08/27 03:44:22;;;;;;;8.85;6.85;;;;;;;22.99;64.76;99861.34;10379142;28;20057;-73
2022/08/27 03:49:24;;;;;;;8.77;7.87;;;;;;;22.87;64.23;99857.63;10379889;28;20672;-73
2022/08/27 03:54:26;;;;;;;7.25;6.60;;;;;;;22.85;64.72;99866.00;10381516;28;20087;-74
2022/08/27 03:59:27;;;;;;;11.27;7.15;;;;;;;22.79;66.06;99869.56;10381155;28;20050;-75
2022/08/27 04:04:29;;;;;;;10.38;7.72;;;;;;;22.74;65.57;99858.50;10380749;28;20465;-72
2022/08/27 04:09:31;;;;;;;8.90;7.35;;;;;;;22.71;65.75;99867.06;10378309;28;20102;-72
2022/08/27 04:14:33;;;;;;;8.45;6.45;;;;;;;22.83;64.94;99878.09;10379352;28;20138;-74
2022/08/27 04:19:34;;;;;;;8.13;7.28;;;;;;;22.74;65.32;99881.06;10412392;28;20045;-75
2022/08/27 04:24:36;;;;;;;8.73;6.55;;;;;;;22.77;65.33;99887.91;10400701;28;20128;-73
2022/08/27 04:29:38;;;;;;;8.20;6.88;;;;;;;22.78;65.51;99893.13;10389618;28;20109;-72
2022/08/27 04:34:40;;;;;;;8.70;7.63;;;;;;;22.61;65.67;99878.38;10385202;28;20594;-75
2022/08/27 04:39:41;;;;;;;9.82;7.22;;;;;;;22.61;65.88;99881.06;10377466;28;20057;-72
2022/08/27 04:44:46;;;;;;;8.25;7.05;;;;;;;22.67;65.82;99895.66;10372654;28;20040;-75
2022/08/27 04:49:47;;;;;;;7.73;6.50;;;;;;;22.62;66.11;99892.75;10379656;28;20084;-72
2022/08/27 04:54:49;;;;;;;8.43;6.53;;;;;;;22.56;66.02;99895.28;10354199;28;20543;-74
2022/08/27 04:59:50;;;;;;;9.02;6.60;;;;;;;22.63;66.19;99899.84;10339690;28;20052;-71
2022/08/27 05:04:52;;;;;;;9.70;6.60;;;;;;;22.58;66.95;99893.19;10345041;28;20060;-71
2022/08/27 05:09:53;;;;;;;8.93;6.32;;;;;;;22.65;66.35;99901.28;10352773;28;20602;-72
2022/08/27 05:14:55;;;;;;;9.52;6.80;;;;;;;22.54;66.26;99907.38;10351709;28;20050;-72
2022/08/27 05:19:56;;;;;;;8.07;6.20;;;;;;;22.55;66.23;99909.88;10349328;28;20052;-72
2022/08/27 05:24:59;;;;;;;7.80;5.97;;;;;;;22.51;66.84;99905.91;10349956;28;20068;-73
2022/08/27 05:30:00;;;;;;;8.38;6.30;;;;;;;22.62;65.99;99903.59;10350246;28;20137;-71
2022/08/27 05:35:02;;;;;;;7.28;6.55;;;;;;;22.54;65.79;99913.63;10350870;28;20056;-74
2022/08/27 05:40:05;;;;;;;8.27;6.70;;;;;;;22.57;66.26;99902.34;10352013;28;20050;-72
2022/08/27 05:45:08;;;;;;;8.32;6.40;;;;;;;22.53;66.00;99902.97;10352082;28;20930;-72
2022/08/27 05:50:15;;;;;;;9.98;6.50;;;;;;;22.44;67.14;99907.78;10362988;28;20467;-73
2022/08/27 05:55:20;;;;;;;10.25;6.28;;;;;;;22.58;67.00;99908.63;10347849;28;20049;-74
2022/08/27 06:05:42;;;;;;;6.95;6.30;;;;;;;22.51;66.02;99914.03;10354456;28;20211;-72
2022/08/27 06:10:44;;;;;;;14.43;5.80;;;;;;;22.53;66.06;99903.84;10346710;28;20130;-72
2022/08/27 06:15:45;;;;;;;7.95;6.38;;;;;;;22.61;66.38;99910.91;10335822;28;20133;-73
2022/08/27 06:20:46;;;;;;;9.07;5.90;;;;;;;22.67;65.68;99901.94;10342364;28;20064;-73
2022/08/27 06:25:48;;;;;;;7.05;5.55;;;;;;;22.74;65.95;99907.31;10351450;28;20080;-73
2022/08/27 06:30:49;;;;;;;7.72;6.28;;;;;;;22.81;65.69;99913.56;10344979;28;20064;-73
2022/08/27 06:35:51;;;;;;;7.65;6.70;;;;;;;22.80;65.11;99917.31;10352882;28;20045;-72
2022/08/27 06:40:53;;;;;;;7.53;6.78;;;;;;;22.79;65.09;99926.53;10355582;28;20052;-76
2022/08/27 06:45:54;;;;;;;11.52;6.95;;;;;;;22.74;65.52;99932.59;10354224;28;20048;-72
2022/08/27 06:50:56;;;;;;;8.30;6.70;;;;;;;22.88;65.05;99937.97;10352658;28;20605;-75
2022/08/27 06:55:57;;;;;;;9.27;6.95;;;;;;;22.83;65.01;99933.19;10356772;28;20041;-72
2022/08/27 07:00:59;;;;;;;7.22;6.53;;;;;;;22.93;64.56;99938.19;10352835;28;20504;-74
2022/08/27 07:06:06;;;;;;;8.15;6.43;;;;;;;22.83;65.44;99941.31;10353033;28;20054;-76
2022/08/27 07:11:10;;;;;;;8.45;5.90;;;;;;;22.91;65.51;99935.69;10346238;28;20072;-75
2022/08/27 07:16:13;;;;;;;6.75;6.00;;;;;;;22.91;64.40;99927.53;10350067;28;20057;-73
2022/08/27 07:21:15;;;;;;;8.05;5.80;;;;;;;22.87;64.96;99939.84;10345226;28;20060;-72
2022/08/27 07:26:19;;;;;;;7.60;5.40;;;;;;;23.12;63.72;99939.22;10348997;28;20059;-75
2022/08/27 07:31:22;;;;;;;6.53;5.07;;;;;;;23.25;63.58;99932.91;10345915;28;20680;-73
2022/08/27 07:36:23;;;;;;;;;;;;;;;23.40;63.49;99929.91;10346530;28;20053;-72
2022/08/27 07:41:25;;;;;;;6.43;5.28;;;;;;;23.37;63.83;99939.31;10363564;28;20295;-71
2022/08/27 07:46:31;;;;;;;6.72;5.10;;;;;;;23.51;62.98;99944.69;10346002;28;20066;-72
2022/08/27 07:51:39;;;;;;;8.48;5.10;;;;;;;23.79;62.06;99947.06;10351040;28;20068;-73
2022/08/27 07:56:41;;;;;;;6.47;4.40;;;;;;;24.14;61.37;99946.63;10349365;28;20060;-74
2022/08/27 08:01:55;;;;;;;4.82;4.30;;;;;;;24.30;59.21;99959.69;10347854;28;20424;-73
2022/08/27 08:06:57;;;;;;;5.68;3.78;;;;;;;24.65;57.79;99950.22;10347088;28;20107;-73
2022/08/27 08:11:58;;;;;;;6.00;3.75;;;;;;;24.96;57.07;99946.56;10349522;28;20049;-74
2022/08/27 08:17:01;;;;;;;6.57;3.42;;;;;;;25.09;56.39;99953.78;10352676;28;20180;-73
2022/08/27 08:22:03;;;;;;;5.43;3.55;;;;;;;25.08;56.38;99954.81;10348787;28;20159;-76
2022/08/27 08:27:06;;;;;;;6.72;4.53;;;;;;;25.50;55.81;99954.16;10348673;28;20053;-74
2022/08/27 08:32:08;;;;;;;4.37;3.27;;;;;;;26.15;53.93;99958.91;10347630;28;20058;-75
2022/08/27 08:37:09;;;;;;;4.18;3.80;;;;;;;26.46;52.65;99963.25;10345623;28;20055;-73
2022/08/27 08:42:35;;;;;;;5.40;3.58;;;;;;;26.26;52.51;99976.41;10345675;28;20053;-73
2022/08/27 08:47:45;;;;;;;4.25;3.80;;;;;;;26.06;53.75;99983.00;10342942;28;20056;-75
2022/08/27 08:52:52;;;;;;;4.03;3.72;;;;;;;26.07;53.76;99973.72;10346577;28;20049;-73
2022/08/27 08:58:10;;;;;;;3.97;3.58;;;;;;;26.26;52.57;99977.22;10343614;28;20373;-75
2022/08/27 09:03:14;;;;;;;4.22;3.17;;;;;;;26.61;52.50;99972.88;10339781;28;20050;-73
2022/08/27 09:08:30;;;;;;;3.80;3.50;;;;;;;26.76;51.70;99980.63;10338510;28;20058;-73
2022/08/27 09:13:41;;;;;;;4.25;3.03;;;;;;;26.85;51.43;99983.84;10341227;28;20958;-73
2022/08/27 09:18:44;;;;;;;2.88;2.58;;;;;;;26.83;50.22;99970.44;10341701;28;20045;-72
2022/08/27 09:24:02;;;;;;;3.47;2.78;;;;;;;26.80;50.89;99977.19;10344020;28;20060;-75
2022/08/27 09:29:20;;;;;;;3.45;3.00;;;;;;;26.72;52.41;99980.28;10342687;28;20049;-72
2022/08/27 09:34:23;;;;;;;3.17;2.88;;;;;;;27.02;50.43;99973.03;10342918;28;20060;-74
2022/08/27 09:39:52;;;;;;;3.20;2.90;;;;;;;27.10;50.32;99987.16;10342970;28;20053;-76
2022/08/27 09:44:54;;;;;;;4.25;2.40;;;;;;;26.78;50.51;99982.06;10345088;28;20038;-71
2022/08/27 09:50:02;;;;;;;2.97;2.72;;;;;;;26.54;52.16;99986.66;10344285;28;20049;-73
2022/08/27 09:55:07;;;;;;;3.92;2.45;;;;;;;26.52;52.00;99982.50;10346553;28;20058;-74
2022/08/27 10:00:14;;;;;;;2.65;2.45;;;;;;;26.58;51.91;99985.09;10343960;28;20063;-71
2022/08/27 10:05:25;;;;;;;2.90;2.60;;;;;;;26.64;52.01;99980.59;10352331;28;20057;-73
2022/08/27 10:10:53;;;;;;;3.28;2.03;;;;;;;26.72;51.34;99985.75;10352352;28;20053;-73
2022/08/27 10:16:11;;;;;;;2.95;2.22;;;;;;;26.75;50.50;99979.81;10350481;28;20050;-74
2022/08/27 10:21:12;;;;;;;2.67;2.30;;;;;;;27.11;49.75;99991.56;10347262;28;20548;-73
2022/08/27 10:26:27;;;;;;;2.95;2.65;;;;;;;27.44;48.16;99983.78;10350367;28;20799;-76
2022/08/27 10:31:50;;;;;;;3.03;2.55;;;;;;;27.62;47.38;99978.16;10349861;28;20167;-74
2022/08/27 10:37:22;;;;;;;4.40;2.55;;;;;;;28.32;46.16;99972.63;10345416;28;20049;-73
2022/08/27 10:42:29;;;;;;;2.43;2.23;;;;;;;28.19;46.38;99981.97;10352077;28;20038;-77
2022/08/27 10:47:55;;;;;;;5.80;3.03;;;;;;;28.08;46.42;99980.13;10378081;28;20046;-71
2022/08/27 10:53:35;;;;;;;2.80;2.60;;;;;;;28.17;46.33;99976.72;10356318;28;20116;-76
2022/08/27 10:58:54;;;;;;;3.88;3.25;;;;;;;27.76;47.11;99989.63;10365141;28;20049;-76
2022/08/27 11:04:05;;;;;;;3.20;2.92;;;;;;;27.55;47.71;99972.00;10341317;28;20054;-75
2022/08/27 11:09:18;;;;;;;3.38;2.80;;;;;;;27.57;47.82;99978.03;10344678;28;20142;-74
2022/08/27 11:14:29;;;;;;;2.97;2.78;;;;;;;28.38;45.80;99979.81;10366742;28;20128;-74
2022/08/27 11:19:38;;;;;;;5.00;2.80;;;;;;;28.74;44.90;99966.75;10346721;28;20050;-75
2022/08/27 11:24:52;;;;;;;2.92;2.58;;;;;;;29.95;42.89;99965.00;10352712;28;20602;-74
2022/08/27 11:29:58;;;;;;;3.35;3.03;;;;;;;30.54;41.07;99966.09;10356625;28;20049;-75
2022/08/27 11:35:20;;;;;;;3.50;3.03;;;;;;;29.90;41.66;99962.19;10349918;28;20118;-74
2022/08/27 11:40:40;;;;;;;3.05;2.78;;;;;;;29.44;42.60;99969.91;10344107;28;20121;-75
2022/08/27 11:46:01;;;;;;;4.05;3.38;;;;;;;28.71;44.54;99968.06;10346833;28;20065;-76
2022/08/27 11:51:05;;;;;;;6.10;3.53;;;;;;;28.24;45.39;99962.06;10350071;28;20772;-77
2022/08/27 11:56:19;;;;;;;4.32;3.03;;;;;;;27.90;46.72;99967.47;10350396;28;20195;-74
2022/08/27 12:01:26;;;;;;;3.83;3.10;;;;;;;27.79;46.06;99956.34;10352073;28;20169;-76
2022/08/27 12:06:40;;;;;;;3.72;3.08;;;;;;;27.84;46.91;99963.81;10349621;28;20053;-75
2022/08/27 12:11:59;;;;;;;2.65;2.45;;;;;;;27.88;46.92;99959.50;10347844;28;20401;-76
2022/08/27 12:17:34;;;;;;;3.80;3.50;;;;;;;27.81;46.73;99954.19;10352976;28;20390;-77
2022/08/27 12:28:25;;;;;;;5.13;3.30;;;;;;;27.72;47.92;99950.19;10339347;28;20046;-78
2022/08/27 12:33:39;;;;;;;4.15;3.35;;;;;;;27.68;47.12;99947.13;10346969;28;20061;-78
2022/08/27 12:38:48;;;;;;;5.28;3.38;;;;;;;27.57;47.58;99944.44;10350902;28;20052;-75
2022/08/27 12:44:05;;;;;;;3.30;3.00;;;;;;;27.41;47.46;99938.63;10344739;28;20465;-77
2022/08/27 12:49:07;;;;;;;3.78;3.10;;;;;;;27.57;47.06;99937.03;10363305;28;20049;-77
2022/08/27 12:54:56;;;;;;;4.25;3.63;;;;;;;27.54;47.33;99947.66;10344082;28;20427;-74
2022/08/27 13:00:19;;;;;;;4.28;2.88;;;;;;;27.63;47.09;99936.06;10347302;28;20464;-73
2022/08/27 13:05:43;;;;;;;3.22;2.92;;;;;;;27.44;48.09;99938.19;10343021;28;20107;-76
2022/08/27 13:10:45;;;;;;;3.33;2.95;;;;;;;27.72;47.01;99939.25;10342902;28;20081;-77
2022/08/27 13:16:00;;;;;;;4.38;3.30;;;;;;;27.95;46.53;99926.53;10343097;28;20166;-73
2022/08/27 13:21:21;;;;;;;3.63;3.33;;;;;;;28.25;45.67;99925.41;10338547;28;20763;-78
2022/08/27 13:26:28;;;;;;;3.60;3.30;;;;;;;28.48;44.91;99922.50;10345786;28;20049;-78
2022/08/27 13:31:31;;;;;;;4.63;3.25;;;;;;;28.51;44.85;99923.91;10336895;28;20064;-75
2022/08/27 13:36:48;;;;;;;4.65;3.05;;;;;;;29.71;42.77;99914.25;10340361;28;20161;-76
2022/08/27 13:41:50;;;;;;;4.15;3.17;;;;;;;30.21;40.76;99917.78;10339679;28;20049;-77
2022/08/27 13:46:59;;;;;;;;;;;;;;;30.31;40.32;99907.69;10341978;28;20051;-73
2022/08/27 13:52:14;;;;;;;6.18;3.08;;;;;;;29.87;41.75;99907.03;10336104;28;19940;-75
2022/08/27 13:57:45;;;;;;;3.20;2.90;;;;;;;29.52;42.46;99900.09;10345509;28;20861;-77
2022/08/27 14:02:47;;;;;;;4.03;3.45;;;;;;;28.90;44.03;99894.66;10342097;28;20057;-76
2022/08/27 14:08:00;;;;;;;4.50;3.45;;;;;;;28.40;44.07;99901.03;10346957;28;20053;-77
2022/08/27 14:13:07;;;;;;;3.88;3.10;;;;;;;27.95;45.24;99896.44;10341954;28;20071;-78
2022/08/27 14:18:31;;;;;;;3.50;3.20;;;;;;;27.75;45.20;99900.47;10344690;28;20054;-73
2022/08/27 14:23:53;;;;;;;6.88;4.43;;;;;;;27.50;46.28;99895.34;10341727;28;20053;-74
2022/08/27 14:28:55;;;;;;;3.87;3.27;;;;;;;27.41;47.00;99905.84;10342773;28;20060;-77
2022/08/27 14:33:56;;;;;;;4.53;4.03;;;;;;;27.21;46.89;99902.69;10322711;28;20293;-76
2022/08/27 14:38:58;;;;;;;4.77;3.40;;;;;;;27.23;46.79;99903.25;10344455;28;20064;-76
2022/08/27 14:44:00;;;;;;;6.45;4.05;;;;;;;27.32;46.88;99901.81;10345773;28;20064;-75
2022/08/27 14:49:10;;;;;;;4.30;3.73;;;;;;;27.36;46.57;99902.19;10353888;28;20054;-75
2022/08/27 14:54:11;;;;;;;5.88;3.83;;;;;;;27.41;46.53;99908.56;10351828;28;20087;-75
2022/08/27 14:59:14;;;;;;;4.55;3.45;;;;;;;27.35;46.56;99912.28;10355820;28;20045;-75
2022/08/27 15:04:16;;;;;;;3.90;3.60;;;;;;;27.20;46.90;99911.94;10356370;28;20083;-74
2022/08/27 15:09:18;;;;;;;4.38;3.97;;;;;;;27.12;46.80;99908.50;10352867;28;20057;-78
2022/08/27 15:14:30;;;;;;;3.70;3.40;;;;;;;26.99;47.55;99915.09;10349702;28;20037;-77
2022/08/27 15:19:32;;;;;;;3.85;3.45;;;;;;;26.91;47.46;99911.91;10350008;28;20052;-74
2022/08/27 15:24:40;;;;;;;5.37;4.20;;;;;;;26.90;47.63;99916.53;10348412;28;20079;-76
2022/08/27 15:29:42;;;;;;;3.33;3.03;;;;;;;26.75;47.74;99906.09;10346855;28;21247;-75
2022/08/27 15:34:43;;;;;;;3.97;3.60;;;;;;;26.59;48.54;99904.06;10346362;28;20634;-74
2022/08/27 15:39:45;;;;;;;5.80;3.85;;;;;;;26.67;48.62;99906.47;10345074;28;20053;-75
2022/08/27 15:44:51;;;;;;;4.10;3.63;;;;;;;26.64;47.93;99907.72;10346542;28;20064;-74
2022/08/27 15:49:52;;;;;;;4.05;3.60;;;;;;;26.55;48.31;99903.69;10346771;28;20945;-78
2022/08/27 15:54:54;;;;;;;5.00;3.63;;;;;;;26.44;48.22;99901.81;10345813;28;20054;-76
2022/08/27 15:59:55;;;;;;;5.78;3.60;;;;;;;26.45;48.97;99904.31;10348209;28;20581;-76
2022/08/27 16:04:57;;;;;;;4.07;3.17;;;;;;;26.55;49.05;99913.78;10346425;28;20140;-73
2022/08/27 16:09:58;;;;;;;5.03;3.03;;;;;;;26.40;48.24;99901.44;10347094;28;20065;-76
2022/08/27 16:15:00;;;;;;;4.35;2.90;;;;;;;26.30;47.99;99901.19;10338670;28;20052;-79
2022/08/27 16:20:04;;;;;;;4.65;2.63;;;;;;;26.03;48.43;99906.25;10358125;28;20053;-75
2022/08/27 16:25:07;;;;;;;3.05;2.83;;;;;;;25.97;50.02;99910.72;10338235;28;20091;-75
2022/08/27 16:30:08;;;;;;;3.70;3.00;;;;;;;25.92;49.65;99913.31;10336083;28;20871;-78
2022/08/27 16:35:10;;;;;;;3.07;2.73;;;;;;;25.91;48.98;99908.91;10341116;28;20084;-73
2022/08/27 16:40:13;;;;;;;3.88;3.22;;;;;;;25.81;50.27;99916.84;10345097;28;20049;-75
2022/08/27 16:45:17;;;;;;;3.75;3.38;;;;;;;25.67;50.24;99911.59;10346987;28;20054;-75
2022/08/27 16:50:34;;;;;;;3.55;3.25;;;;;;;25.66;50.62;99912.66;10332731;28;20415;-78
2022/08/27 16:55:36;;;;;;;2.83;2.58;;;;;;;25.55;50.45;99916.16;10340247;28;20696;-75
2022/08/27 17:00:44;;;;;;;3.75;2.90;;;;;;;25.46;49.98;99917.53;10309963;28;20162;-75
2022/08/27 17:05:47;;;;;;;4.13;3.35;;;;;;;25.38;50.71;99929.56;10344069;28;20057;-74
2022/08/27 17:10:55;;;;;;;4.05;3.13;;;;;;;25.43;50.72;99931.63;10313021;23;20065;-74
2022/08/27 17:15:56;;;;;;;4.18;3.50;;;;;;;25.32;51.80;99934.03;10311487;28;20257;-72
2022/08/27 17:20:59;;;;;;;3.55;3.17;;;;;;;25.19;51.13;99928.72;10312522;28;20062;-73
2022/08/27 17:26:01;;;;;;;3.90;3.60;;;;;;;25.22;51.13;99952.78;10278106;28;20363;-73
2022/08/27 17:31:03;;;;;;;6.93;3.25;;;;;;;25.06;51.23;99956.94;10299338;28;20269;-75
2022/08/27 17:36:07;;;;;;;5.10;3.03;;;;;;;24.81;51.61;99965.97;10304906;28;20460;-71
2022/08/27 17:41:11;;;;;;;4.20;2.63;;;;;;;24.45;52.92;99972.16;10315940;28;20175;-73
2022/08/27 17:46:14;;;;;;;2.50;2.30;;;;;;;24.37;53.30;99986.84;10304442;28;20057;-75
2022/08/27 17:51:18;;;;;;;5.93;3.23;;;;;;;24.39;52.64;99986.63;10331895;28;20053;-73
2022/08/27 17:56:22;;;;;;;3.05;2.35;;;;;;;24.32;52.79;99981.22;10318278;28;20072;-75
2022/08/27 18:01:29;;;;;;;5.13;2.55;;;;;;;24.28;52.72;99994.44;10304446;28;20500;-73
2022/08/27 18:06:31;;;;;;;2.88;2.63;;;;;;;24.31;53.05;99999.44;10300223;28;20061;-73
2022/08/27 18:11:33;;;;;;;4.30;2.95;;;;;;;24.19;52.63;100001.22;10303592;28;20054;-73
2022/08/27 18:16:34;;;;;;;3.25;2.45;;;;;;;24.12;53.11;100011.28;10302344;28;20088;-73
2022/08/27 18:21:36;;;;;;;2.70;2.15;;;;;;;23.99;53.72;100021.19;10314535;28;20096;-73
2022/08/27 18:26:47;;;;;;;4.93;2.40;;;;;;;23.87;53.98;100025.66;10312389;28;20046;-74
2022/08/27 18:31:48;;;;;;;3.17;2.45;;;;;;;23.87;53.91;100032.97;10327523;28;20176;-74
2022/08/27 18:36:50;;;;;;;4.63;2.70;;;;;;;23.79;53.97;100028.56;10308229;28;20532;-72
2022/08/27 18:41:53;;;;;;;4.10;3.20;;;;;;;23.80;54.08;100032.97;10311486;28;20652;-72
2022/08/27 18:46:54;;;;;;;4.67;2.40;;;;;;;23.90;53.49;100043.41;10309299;28;20057;-72
2022/08/27 18:51:55;;;;;;;6.25;2.83;;;;;;;23.76;54.71;100048.84;10307486;28;20457;-73
2022/08/27 18:56:57;;;;;;;4.13;2.53;;;;;;;23.66;54.20;100051.22;10314768;28;20145;-73
2022/08/27 19:01:59;;;;;;;3.60;2.72;;;;;;;23.63;54.30;100062.53;10310702;28;20153;-71
2022/08/27 19:07:01;;;;;;;4.07;2.27;;;;;;;23.58;54.28;100057.69;10313419;28;20204;-72
2022/08/27 19:12:03;;;;;;;2.85;2.50;;;;;;;23.62;54.81;100072.53;10310962;28;20551;-74
2022/08/27 19:17:07;;;;;;;6.63;2.40;;;;;;;23.53;54.80;100079.25;10312822;28;20054;-75
2022/08/27 19:22:08;;;;;;;5.00;2.42;;;;;;;23.51;54.03;100085.94;10311861;28;20054;-74
2022/08/27 19:27:09;;;;;;;3.53;2.20;;;;;;;23.39;54.88;100088.47;10313230;28;20069;-74
2022/08/27 19:32:11;;;;;;;3.35;2.00;;;;;;;23.32;54.64;100093.09;10308337;28;20057;-72
2022/08/27 19:37:19;;;;;;;3.35;2.00;;;;;;;23.20;55.03;100101.88;10306682;28;20631;-73
2022/08/27 19:42:21;;;;;;;4.10;2.33;;;;;;;23.04;55.30;100119.38;10308168;28;20049;-72
2022/08/27 19:47:24;;;;;;;7.28;2.33;;;;;;;23.11;55.33;100119.41;10304875;28;20153;-72
2022/08/27 19:52:26;;;;;;;4.82;2.30;;;;;;;23.02;56.44;100123.34;10323780;28;20149;-75
2022/08/27 19:57:27;;;;;;;3.13;1.90;;;;;;;23.03;55.38;100122.28;10303529;28;20072;-75
2022/08/27 20:02:28;;;;;;;4.45;2.00;;;;;;;22.95;56.47;100118.78;10306640;28;20815;-71
2022/08/27 20:07:30;;;;;;;4.88;2.30;;;;;;;22.89;56.46;100130.44;10307660;28;20064;-73
2022/08/27 20:12:36;;;;;;;3.22;1.90;;;;;;;22.80;55.92;100122.72;10305098;28;20050;-71
2022/08/27 20:17:37;;;;;;;2.10;1.80;;;;;;;22.81;55.71;100119.78;10305921;28;20539;-73
2022/08/27 20:22:39;;;;;;;4.50;2.13;;;;;;;22.77;56.55;100130.22;10309746;28;20108;-76
2022/08/27 20:27:41;;;;;;;2.00;1.80;;;;;;;22.69;56.26;100133.13;10311061;28;20096;-76
2022/08/27 20:32:45;;;;;;;3.60;1.98;;;;;;;22.71;56.19;100146.47;10311419;28;20056;-73
2022/08/27 20:37:46;;;;;;;3.50;2.38;;;;;;;22.65;56.60;100141.88;10314307;28;20053;-75
2022/08/27 20:42:48;;;;;;;4.82;2.08;;;;;;;22.59;56.80;100144.41;10310042;28;20054;-75
2022/08/27 20:47:52;;;;;;;2.03;1.83;;;;;;;22.53;56.78;100150.63;10306141;28;20060;-74
2022/08/27 20:52:53;;;;;;;3.75;2.15;;;;;;;22.49;57.85;100152.09;10305706;28;20039;-73
2022/08/27 21:03:15;;;;;;;3.25;2.40;;;;;;;22.32;57.73;100159.72;10305643;28;20174;-71
2022/08/27 21:08:18;;;;;;;3.90;1.88;;;;;;;22.33;58.16;100163.28;10302540;28;20626;-72
2022/08/27 21:13:20;;;;;;;5.10;1.65;;;;;;;22.33;57.64;100174.13;10308882;28;20692;-73
2022/08/27 21:18:22;;;;;;;2.08;1.77;;;;;;;22.34;58.33;100173.06;10330776;28;20046;-71
2022/08/27 21:23:30;;;;;;;5.15;2.33;;;;;;;22.39;57.55;100167.91;10333950;28;20070;-71
2022/08/27 21:28:32;;;;;;;5.97;2.55;;;;;;;22.36;59.30;100173.72;10336709;28;20116;-74
2022/08/27 21:33:34;;;;;;;3.58;2.40;;;;;;;22.32;57.83;100170.56;10330883;28;20052;-72
2022/08/27 21:38:39;;;;;;;4.68;2.78;;;;;;;22.31;58.99;100174.34;10334505;28;20060;-72
2022/08/27 21:43:41;;;;;;;4.35;2.17;;;;;;;22.24;57.90;100168.84;10332403;28;20049;-73
2022/08/27 21:48:42;;;;;;;2.78;2.22;;;;;;;22.17;58.29;100157.16;10333326;28;20067;-71
2022/08/27 21:53:45;;;;;;;4.53;2.05;;;;;;;22.20;58.18;100167.59;10334117;28;20132;-71
2022/08/27 21:58:46;;;;;;;3.67;2.27;;;;;;;22.15;58.70;100174.66;10332534;28;20049;-73
2022/08/27 22:03:49;;;;;;;2.25;1.85;;;;;;;22.01;59.86;100171.06;10332789;28;20042;-74
2022/08/27 22:08:51;;;;;;;3.13;2.55;;;;;;;21.90;58.79;100169.72;10331501;28;20092;-74
2022/08/27 22:13:52;;;;;;;2.03;1.67;;;;;;;21.91;58.85;100163.28;10329004;28;20136;-74
2022/08/27 22:18:55;;;;;;;5.15;2.35;;;;;;;21.96;58.32;100168.09;10330958;28;20181;-71
2022/08/27 22:23:57;;;;;;;5.65;2.42;;;;;;;21.88;58.90;100169.91;10329823;28;20374;-72
2022/08/27 22:28:59;;;;;;;4.78;2.30;;;;;;;21.85;58.97;100164.91;10336709;28;20455;-72
2022/08/27 22:34:01;;;;;;;2.60;2.08;;;;;;;21.86;59.32;100166.59;10338609;28;20050;-73
2022/08/27 22:39:03;;;;;;;4.40;2.80;;;;;;;21.72;59.28;100156.69;10331977;28;20060;-72
2022/08/27 22:44:05;;;;;;;3.05;2.63;;;;;;;21.67;59.75;100156.47;10333704;28;20046;-70
2022/08/27 22:49:06;;;;;;;2.58;2.08;;;;;;;21.61;59.63;100152.69;10331140;28;20591;-73
2022/08/27 22:54:08;;;;;;;4.80;2.28;;;;;;;21.63;58.97;100155.19;10330814;28;20054;-71
2022/08/27 22:59:09;;;;;;;2.88;2.35;;;;;;;21.53;59.44;100156.38;10331552;28;20060;-72
2022/08/27 23:04:11;;;;;;;4.63;2.15;;;;;;;21.44;59.12;100153.97;10332672;28;20064;-73
2022/08/27 23:09:12;;;;;;;3.92;2.40;;;;;;;21.43;59.49;100155.84;10335754;28;20085;-75
2022/08/27 23:14:14;;;;;;;3.17;2.42;;;;;;;21.45;59.00;100144.81;10336021;28;20058;-73
2022/08/27 23:19:15;;;;;;;2.50;2.03;;;;;;;21.43;59.92;100144.19;10335426;28;20165;-73
2022/08/27 23:24:17;;;;;;;2.97;2.45;;;;;;;21.34;60.00;100148.91;10333611;28;20058;-71
2022/08/27 23:29:21;;;;;;;3.88;2.22;;;;;;;21.30;59.75;100150.34;10333936;28;20152;-70
2022/08/27 23:34:23;;;;;;;4.47;2.40;;;;;;;21.25;59.66;100148.22;10332009;28;20054;-70
2022/08/27 23:39:24;;;;;;;4.55;2.58;;;;;;;21.21;60.41;100146.09;10333390;28;20046;-71
2022/08/27 23:44:28;;;;;;;3.22;2.45;;;;;;;21.09;60.42;100138.53;10333606;28;20059;-71
2022/08/27 23:49:31;;;;;;;6.50;2.33;;;;;;;21.06;61.08;100138.88;10330239;28;20054;-71
2022/08/27 23:54:32;;;;;;;2.92;2.38;;;;;;;21.09;61.30;100141.25;10331450;28;20415;-70